sensor_id;sensor_type;location;lat;lon;timestamp;pressure;altitude;pressure_sealevel;temperature;humidity
33414;BME280;60055;41.884;12.534;2023-07-30T00:01:16;100905.53;;;27.43;65.62
33414;BME280;60055;41.884;12.534;2023-07-30T00:03:41;100902.75;;;27.35;66.02
33414;BME280;60055;41.884;12.534;2023-07-30T00:06:07;100904.16;;;27.39;65.53
33414;BME280;60055;41.884;12.534;2023-07-30T00:08:32;100895.34;;;27.37;65.86
33414;BME280;60055;41.884;12.534;2023-07-30T00:10:58;100898.72;;;27.39;66.01
33414;BME280;60055;41.884;12.534;2023-07-30T00:13:24;100897.88;;;27.39;66.16
33414;BME280;60055;41.884;12.534;2023-07-30T00:15:49;100892.88;;;27.44;65.72
33414;BME280;60055;41.884;12.534;2023-07-30T00:18:15;100894.69;;;27.43;65.76
33414;BME280;60055;41.884;12.534;2023-07-30T00:20:41;100890.75;;;27.38;66.02
33414;BME280;60055;41.884;12.534;2023-07-30T00:23:07;100890.06;;;27.36;65.55
33414;BME280;60055;41.884;12.534;2023-07-30T00:25:32;100888.03;;;27.38;65.87
33414;BME280;60055;41.884;12.534;2023-07-30T00:27:58;100881.19;;;27.26;66.45
33414;BME280;60055;41.884;12.534;2023-07-30T00:30:23;100879.69;;;27.31;65.67
33414;BME280;60055;41.884;12.534;2023-07-30T00:32:49;100880.38;;;27.33;65.43
33414;BME280;60055;41.884;12.534;2023-07-30T00:35:14;100873.94;;;27.34;65.76
33414;BME280;60055;41.884;12.534;2023-07-30T00:37:40;100875.31;;;27.38;65.92
33414;BME280;60055;41.884;12.534;2023-07-30T00:40:06;100861.88;;;27.29;65.99
33414;BME280;60055;41.884;12.534;2023-07-30T00:42:31;100864.59;;;27.29;65.88
33414;BME280;60055;41.884;12.534;2023-07-30T00:44:57;100870.19;;;27.27;66.27
33414;BME280;60055;41.884;12.534;2023-07-30T00:47:22;100872.50;;;27.22;66.47
33414;BME280;60055;41.884;12.534;2023-07-30T00:49:48;100865.22;;;27.23;66.08
33414;BME280;60055;41.884;12.534;2023-07-30T00:52:18;100864.94;;;27.08;66.79
33414;BME280;60055;41.884;12.534;2023-07-30T00:54:48;100857.97;;;27.06;67.19
33414;BME280;60055;41.884;12.534;2023-07-30T00:57:15;100861.91;;;27.11;67.00
33414;BME280;60055;41.884;12.534;2023-07-30T00:59:42;100863.63;;;27.12;66.75
33414;BME280;60055;41.884;12.534;2023-07-30T01:02:08;100864.69;;;27.19;66.17
33414;BME280;60055;41.884;12.534;2023-07-30T01:04:33;100863.16;;;27.17;66.45
33414;BME280;60055;41.884;12.534;2023-07-30T01:06:59;100863.31;;;27.15;66.58
33414;BME280;60055;41.884;12.534;2023-07-30T01:09:24;100861.59;;;27.14;66.60
33414;BME280;60055;41.884;12.534;2023-07-30T01:11:51;100862.75;;;27.12;66.52
33414;BME280;60055;41.884;12.534;2023-07-30T01:14:20;100854.94;;;27.09;66.47
33414;BME280;60055;41.884;12.534;2023-07-30T01:16:45;100852.91;;;27.11;66.26
33414;BME280;60055;41.884;12.534;2023-07-30T01:19:11;100856.88;;;27.16;66.00
33414;BME280;60055;41.884;12.534;2023-07-30T01:21:37;100863.16;;;27.17;66.19
33414;BME280;60055;41.884;12.534;2023-07-30T01:24:03;100860.06;;;27.12;65.86
33414;BME280;60055;41.884;12.534;2023-07-30T01:26:38;100853.78;;;27.11;66.23
33414;BME280;60055;41.884;12.534;2023-07-30T01:29:11;100849.06;;;27.13;66.08
33414;BME280;60055;41.884;12.534;2023-07-30T01:31:40;100861.66;;;26.97;66.67
33414;BME280;60055;41.884;12.534;2023-07-30T01:34:07;100852.38;;;27.07;66.30
33414;BME280;60055;41.884;12.534;2023-07-30T01:36:35;100855.09;;;27.07;66.07
33414;BME280;60055;41.884;12.534;2023-07-30T01:39:03;100860.69;;;27.06;66.34
33414;BME280;60055;41.884;12.534;2023-07-30T01:41:28;100858.66;;;27.08;65.95
33414;BME280;60055;41.884;12.534;2023-07-30T01:43:54;100858.53;;;27.09;65.88
33414;BME280;60055;41.884;12.534;2023-07-30T01:46:19;100853.41;;;27.06;66.09
33414;BME280;60055;41.884;12.534;2023-07-30T01:48:45;100855.09;;;27.07;66.24
33414;BME280;60055;41.884;12.534;2023-07-30T01:51:10;100845.38;;;26.97;66.32
33414;BME280;60055;41.884;12.534;2023-07-30T01:53:35;100856.75;;;27.00;65.89
33414;BME280;60055;41.884;12.534;2023-07-30T01:56:01;100853.56;;;27.05;66.14
33414;BME280;60055;41.884;12.534;2023-07-30T01:58:26;100853.03;;;27.01;66.49
33414;BME280;60055;41.884;12.534;2023-07-30T02:00:52;100860.31;;;27.01;66.36
33414;BME280;60055;41.884;12.534;2023-07-30T02:03:17;100858.44;;;27.01;66.19
33414;BME280;60055;41.884;12.534;2023-07-30T02:05:42;100856.22;;;26.97;66.25
33414;BME280;60055;41.884;12.534;2023-07-30T02:08:08;100861.88;;;26.85;66.65
33414;BME280;60055;41.884;12.534;2023-07-30T02:10:33;100871.09;;;26.92;66.35
33414;BME280;60055;41.884;12.534;2023-07-30T02:12:59;100868.38;;;26.92;66.35
33414;BME280;60055;41.884;12.534;2023-07-30T02:15:24;100864.81;;;26.92;66.62
33414;BME280;60055;41.884;12.534;2023-07-30T02:17:50;100866.53;;;26.93;66.82
33414;BME280;60055;41.884;12.534;2023-07-30T02:20:15;100867.22;;;26.95;66.41
33414;BME280;60055;41.884;12.534;2023-07-30T02:22:41;100876.34;;;26.94;66.67
33414;BME280;60055;41.884;12.534;2023-07-30T02:25:06;100880.22;;;26.91;66.63
33414;BME280;60055;41.884;12.534;2023-07-30T02:27:32;100874.13;;;26.89;66.51
33414;BME280;60055;41.884;12.534;2023-07-30T02:29:57;100875.13;;;26.88;66.61
33414;BME280;60055;41.884;12.534;2023-07-30T02:32:22;100870.16;;;26.84;66.66
33414;BME280;60055;41.884;12.534;2023-07-30T02:34:48;100865.03;;;26.81;67.01
33414;BME280;60055;41.884;12.534;2023-07-30T02:37:13;100865.28;;;26.87;67.04
33414;BME280;60055;41.884;12.534;2023-07-30T02:39:39;100868.69;;;26.89;66.87
33414;BME280;60055;41.884;12.534;2023-07-30T02:42:05;100863.09;;;26.91;66.71
33414;BME280;60055;41.884;12.534;2023-07-30T02:44:30;100871.00;;;26.84;66.62
33414;BME280;60055;41.884;12.534;2023-07-30T02:46:55;100879.00;;;26.86;66.69
33414;BME280;60055;41.884;12.534;2023-07-30T02:49:21;100869.47;;;26.82;67.04
33414;BME280;60055;41.884;12.534;2023-07-30T02:51:46;100869.22;;;26.75;67.47
33414;BME280;60055;41.884;12.534;2023-07-30T02:54:14;100873.78;;;26.75;67.44
33414;BME280;60055;41.884;12.534;2023-07-30T02:56:40;100872.59;;;26.77;67.24
33414;BME280;60055;41.884;12.534;2023-07-30T02:59:05;100871.63;;;26.78;67.29
33414;BME280;60055;41.884;12.534;2023-07-30T03:01:30;100871.47;;;26.80;67.23
33414;BME280;60055;41.884;12.534;2023-07-30T03:03:56;100869.34;;;26.74;66.88
33414;BME280;60055;41.884;12.534;2023-07-30T03:06:21;100874.47;;;26.77;66.96
33414;BME280;60055;41.884;12.534;2023-07-30T03:08:46;100876.50;;;26.75;67.17
33414;BME280;60055;41.884;12.534;2023-07-30T03:11:12;100867.06;;;26.79;67.28
33414;BME280;60055;41.884;12.534;2023-07-30T03:13:38;100869.59;;;26.80;67.34
33414;BME280;60055;41.884;12.534;2023-07-30T03:16:04;100868.91;;;26.78;67.40
33414;BME280;60055;41.884;12.534;2023-07-30T03:18:29;100874.63;;;26.75;67.41
33414;BME280;60055;41.884;12.534;2023-07-30T03:21:01;100870.22;;;26.74;67.46
33414;BME280;60055;41.884;12.534;2023-07-30T03:23:27;100858.53;;;26.74;67.45
33414;BME280;60055;41.884;12.534;2023-07-30T03:25:53;100870.22;;;26.74;67.48
33414;BME280;60055;41.884;12.534;2023-07-30T03:28:18;100853.97;;;26.74;67.65
33414;BME280;60055;41.884;12.534;2023-07-30T03:30:44;100856.63;;;26.66;68.00
33414;BME280;60055;41.884;12.534;2023-07-30T03:33:09;100855.75;;;26.66;68.01
33414;BME280;60055;41.884;12.534;2023-07-30T03:35:35;100856.13;;;26.71;67.66
33414;BME280;60055;41.884;12.534;2023-07-30T03:38:00;100858.84;;;26.71;67.51
33414;BME280;60055;41.884;12.534;2023-07-30T03:40:26;100861.94;;;26.76;67.25
33414;BME280;60055;41.884;12.534;2023-07-30T03:42:51;100870.84;;;26.68;67.26
33414;BME280;60055;41.884;12.534;2023-07-30T03:45:17;100865.94;;;26.09;70.40
33414;BME280;60055;41.884;12.534;2023-07-30T03:47:42;100872.25;;;26.00;68.78
33414;BME280;60055;41.884;12.534;2023-07-30T03:50:08;100882.16;;;25.35;69.04
33414;BME280;60055;41.884;12.534;2023-07-30T03:52:33;100876.06;;;25.33;69.26
33414;BME280;60055;41.884;12.534;2023-07-30T03:54:59;100876.28;;;25.50;68.36
33414;BME280;60055;41.884;12.534;2023-07-30T03:57:24;100865.47;;;25.50;67.74
33414;BME280;60055;41.884;12.534;2023-07-30T03:59:49;100866.63;;;25.57;67.42
33414;BME280;60055;41.884;12.534;2023-07-30T04:02:15;100865.06;;;25.54;67.27
33414;BME280;60055;41.884;12.534;2023-07-30T04:04:42;100866.63;;;25.47;67.18
33414;BME280;60055;41.884;12.534;2023-07-30T04:07:09;100869.22;;;25.39;67.16
33414;BME280;60055;41.884;12.534;2023-07-30T04:09:35;100864.13;;;25.26;67.53
33414;BME280;60055;41.884;12.534;2023-07-30T04:12:01;100868.66;;;25.35;67.01
33414;BME280;60055;41.884;12.534;2023-07-30T04:14:26;100857.69;;;25.37;66.92
33414;BME280;60055;41.884;12.534;2023-07-30T04:16:52;100863.81;;;25.39;66.84
33414;BME280;60055;41.884;12.534;2023-07-30T04:19:17;100849.31;;;25.30;66.66
33414;BME280;60055;41.884;12.534;2023-07-30T04:21:43;100851.00;;;25.31;66.73
33414;BME280;60055;41.884;12.534;2023-07-30T04:24:08;100855.72;;;25.29;66.68
33414;BME280;60055;41.884;12.534;2023-07-30T04:26:33;100849.66;;;25.18;67.12
33414;BME280;60055;41.884;12.534;2023-07-30T04:28:59;100842.19;;;25.29;66.73
33414;BME280;60055;41.884;12.534;2023-07-30T04:31:24;100838.59;;;25.38;66.30
33414;BME280;60055;41.884;12.534;2023-07-30T04:33:50;100833.47;;;25.45;65.79
33414;BME280;60055;41.884;12.534;2023-07-30T04:36:15;100826.22;;;25.46;65.94
33414;BME280;60055;41.884;12.534;2023-07-30T04:38:40;100832.50;;;25.36;65.75
33414;BME280;60055;41.884;12.534;2023-07-30T04:41:06;100829.13;;;25.34;66.59
33414;BME280;60055;41.884;12.534;2023-07-30T04:43:32;100834.22;;;25.37;66.02
33414;BME280;60055;41.884;12.534;2023-07-30T04:45:57;100827.63;;;25.50;65.64
33414;BME280;60055;41.884;12.534;2023-07-30T04:48:23;100818.09;;;25.55;65.37
33414;BME280;60055;41.884;12.534;2023-07-30T04:50:48;100819.50;;;25.59;64.97
33414;BME280;60055;41.884;12.534;2023-07-30T04:53:14;100819.09;;;25.54;65.77
33414;BME280;60055;41.884;12.534;2023-07-30T04:55:39;100826.19;;;25.65;65.63
33414;BME280;60055;41.884;12.534;2023-07-30T04:58:05;100830.06;;;25.80;65.03
33414;BME280;60055;41.884;12.534;2023-07-30T05:00:30;100830.97;;;25.98;64.61
33414;BME280;60055;41.884;12.534;2023-07-30T05:02:56;100829.06;;;26.08;64.03
33414;BME280;60055;41.884;12.534;2023-07-30T05:05:21;100835.53;;;26.25;64.05
33414;BME280;60055;41.884;12.534;2023-07-30T05:07:46;100847.22;;;26.61;63.11
33414;BME280;60055;41.884;12.534;2023-07-30T05:10:12;100838.81;;;26.81;62.25
33414;BME280;60055;41.884;12.534;2023-07-30T05:12:37;100846.97;;;27.07;61.34
33414;BME280;60055;41.884;12.534;2023-07-30T05:15:03;100864.38;;;26.97;61.92
33414;BME280;60055;41.884;12.534;2023-07-30T05:17:29;100855.38;;;26.96;62.05
33414;BME280;60055;41.884;12.534;2023-07-30T05:19:55;100861.75;;;27.38;60.62
33414;BME280;60055;41.884;12.534;2023-07-30T05:22:20;100864.31;;;27.58;59.72
33414;BME280;60055;41.884;12.534;2023-07-30T05:24:46;100861.53;;;27.50;59.60
33414;BME280;60055;41.884;12.534;2023-07-30T05:27:12;100861.59;;;27.91;59.15
33414;BME280;60055;41.884;12.534;2023-07-30T05:29:38;100862.53;;;28.16;58.39
33414;BME280;60055;41.884;12.534;2023-07-30T05:32:03;100855.59;;;28.22;58.16
33414;BME280;60055;41.884;12.534;2023-07-30T05:34:29;100842.94;;;28.55;56.93
33414;BME280;60055;41.884;12.534;2023-07-30T05:36:54;100852.81;;;28.80;56.07
33414;BME280;60055;41.884;12.534;2023-07-30T05:39:20;100852.66;;;28.73;57.00
33414;BME280;60055;41.884;12.534;2023-07-30T05:41:45;100850.19;;;28.30;56.96
33414;BME280;60055;41.884;12.534;2023-07-30T05:44:10;100860.06;;;28.63;56.94
33414;BME280;60055;41.884;12.534;2023-07-30T05:46:36;100858.94;;;28.82;56.18
33414;BME280;60055;41.884;12.534;2023-07-30T05:49:01;100859.97;;;28.81;55.79
33414;BME280;60055;41.884;12.534;2023-07-30T05:51:26;100856.56;;;29.11;54.65
33414;BME280;60055;41.884;12.534;2023-07-30T05:53:52;100855.00;;;29.25;54.19
33414;BME280;60055;41.884;12.534;2023-07-30T05:56:17;100854.34;;;29.23;54.12
33414;BME280;60055;41.884;12.534;2023-07-30T05:58:44;100855.31;;;29.54;53.41
33414;BME280;60055;41.884;12.534;2023-07-30T06:01:09;100855.44;;;29.69;53.50
33414;BME280;60055;41.884;12.534;2023-07-30T06:03:37;100860.16;;;29.91;53.26
33414;BME280;60055;41.884;12.534;2023-07-30T06:06:02;100860.50;;;29.80;53.62
33414;BME280;60055;41.884;12.534;2023-07-30T06:08:27;100856.13;;;30.18;52.61
33414;BME280;60055;41.884;12.534;2023-07-30T06:10:54;100850.84;;;30.08;52.68
33414;BME280;60055;41.884;12.534;2023-07-30T06:13:20;100855.31;;;30.32;52.20
33414;BME280;60055;41.884;12.534;2023-07-30T06:15:46;100853.03;;;30.52;51.85
33414;BME280;60055;41.884;12.534;2023-07-30T06:18:11;100849.59;;;30.58;52.04
33414;BME280;60055;41.884;12.534;2023-07-30T06:20:36;100852.78;;;30.84;51.24
33414;BME280;60055;41.884;12.534;2023-07-30T06:23:02;100859.63;;;30.80;51.29
33414;BME280;60055;41.884;12.534;2023-07-30T06:25:29;100854.06;;;30.96;51.81
33414;BME280;60055;41.884;12.534;2023-07-30T06:27:54;100863.53;;;30.85;51.59
33414;BME280;60055;41.884;12.534;2023-07-30T06:30:22;100851.34;;;30.96;51.31
33414;BME280;60055;41.884;12.534;2023-07-30T06:32:47;100855.16;;;31.24;50.88
33414;BME280;60055;41.884;12.534;2023-07-30T06:35:13;100848.81;;;31.47;49.76
33414;BME280;60055;41.884;12.534;2023-07-30T06:37:38;100849.44;;;31.34;49.93
33414;BME280;60055;41.884;12.534;2023-07-30T06:40:04;100862.84;;;31.58;49.39
33414;BME280;60055;41.884;12.534;2023-07-30T06:42:31;100852.88;;;31.65;48.28
33414;BME280;60055;41.884;12.534;2023-07-30T06:44:56;100857.28;;;31.81;48.36
33414;BME280;60055;41.884;12.534;2023-07-30T06:47:22;100852.66;;;31.96;47.40
33414;BME280;60055;41.884;12.534;2023-07-30T06:49:47;100849.50;;;32.28;46.52
33414;BME280;60055;41.884;12.534;2023-07-30T06:52:13;100843.28;;;32.34;46.75
33414;BME280;60055;41.884;12.534;2023-07-30T06:54:38;100841.53;;;32.48;46.48
33414;BME280;60055;41.884;12.534;2023-07-30T06:57:04;100841.84;;;31.88;48.12
33414;BME280;60055;41.884;12.534;2023-07-30T06:59:33;100841.09;;;31.79;47.90
33414;BME280;60055;41.884;12.534;2023-07-30T07:01:59;100836.72;;;32.14;47.91
33414;BME280;60055;41.884;12.534;2023-07-30T07:04:24;100836.84;;;31.91;47.04
33414;BME280;60055;41.884;12.534;2023-07-30T07:06:50;100828.75;;;32.55;46.19
33414;BME280;60055;41.884;12.534;2023-07-30T07:09:15;100833.53;;;33.10;42.32
33414;BME280;60055;41.884;12.534;2023-07-30T07:11:41;100834.06;;;33.55;41.84
33414;BME280;60055;41.884;12.534;2023-07-30T07:14:06;100836.78;;;33.82;41.38
33414;BME280;60055;41.884;12.534;2023-07-30T07:16:32;100826.06;;;33.94;40.53
33414;BME280;60055;41.884;12.534;2023-07-30T07:18:57;100822.81;;;33.43;41.63
33414;BME280;60055;41.884;12.534;2023-07-30T07:21:22;100827.25;;;33.44;42.02
33414;BME280;60055;41.884;12.534;2023-07-30T07:23:48;100822.53;;;33.31;42.19
33414;BME280;60055;41.884;12.534;2023-07-30T07:26:13;100817.38;;;32.94;42.73
33414;BME280;60055;41.884;12.534;2023-07-30T07:28:39;100820.31;;;32.92;42.63
33414;BME280;60055;41.884;12.534;2023-07-30T07:31:04;100823.38;;;32.83;42.43
33414;BME280;60055;41.884;12.534;2023-07-30T07:33:29;100819.66;;;33.12;41.26
33414;BME280;60055;41.884;12.534;2023-07-30T07:36:05;100822.25;;;33.54;40.85
33414;BME280;60055;41.884;12.534;2023-07-30T07:38:32;100822.25;;;33.88;40.20
33414;BME280;60055;41.884;12.534;2023-07-30T07:40:58;100820.72;;;34.20;39.58
33414;BME280;60055;41.884;12.534;2023-07-30T07:43:24;100830.13;;;34.65;38.19
33414;BME280;60055;41.884;12.534;2023-07-30T07:45:49;100826.34;;;34.79;36.97
33414;BME280;60055;41.884;12.534;2023-07-30T07:48:14;100826.31;;;34.66;37.07
33414;BME280;60055;41.884;12.534;2023-07-30T07:50:40;100826.34;;;34.86;36.06
33414;BME280;60055;41.884;12.534;2023-07-30T07:53:05;100827.41;;;34.98;36.21
33414;BME280;60055;41.884;12.534;2023-07-30T07:55:31;100831.44;;;35.28;35.21
33414;BME280;60055;41.884;12.534;2023-07-30T07:57:56;100827.19;;;34.80;35.23
33414;BME280;60055;41.884;12.534;2023-07-30T08:00:22;100831.53;;;34.55;36.61
33414;BME280;60055;41.884;12.534;2023-07-30T08:02:47;100827.50;;;34.37;35.89
33414;BME280;60055;41.884;12.534;2023-07-30T08:05:13;100833.09;;;34.70;36.13
33414;BME280;60055;41.884;12.534;2023-07-30T08:07:39;100831.81;;;34.86;36.23
33414;BME280;60055;41.884;12.534;2023-07-30T08:10:05;100829.47;;;33.96;37.70
33414;BME280;60055;41.884;12.534;2023-07-30T08:12:32;100827.94;;;33.94;38.04
33414;BME280;60055;41.884;12.534;2023-07-30T08:14:58;100823.66;;;33.44;38.04
33414;BME280;60055;41.884;12.534;2023-07-30T08:17:24;100826.31;;;33.99;36.09
33414;BME280;60055;41.884;12.534;2023-07-30T08:19:49;100824.31;;;33.80;34.33
33414;BME280;60055;41.884;12.534;2023-07-30T08:22:15;100830.84;;;33.45;35.49
33414;BME280;60055;41.884;12.534;2023-07-30T08:24:40;100821.44;;;33.26;35.40
33414;BME280;60055;41.884;12.534;2023-07-30T08:27:06;100825.38;;;32.96;36.02
33414;BME280;60055;41.884;12.534;2023-07-30T08:29:31;100839.50;;;33.76;34.13
33414;BME280;60055;41.884;12.534;2023-07-30T08:31:56;100839.97;;;33.86;34.15
33414;BME280;60055;41.884;12.534;2023-07-30T08:34:22;100848.38;;;33.22;35.91
33414;BME280;60055;41.884;12.534;2023-07-30T08:36:48;100834.94;;;33.27;35.89
33414;BME280;60055;41.884;12.534;2023-07-30T08:39:14;100842.69;;;33.86;35.46
33414;BME280;60055;41.884;12.534;2023-07-30T08:41:40;100835.72;;;33.90;35.13
33414;BME280;60055;41.884;12.534;2023-07-30T08:44:06;100835.13;;;33.26;36.94
33414;BME280;60055;41.884;12.534;2023-07-30T08:46:31;100836.09;;;33.12;36.74
33414;BME280;60055;41.884;12.534;2023-07-30T08:48:57;100833.41;;;32.76;36.81
33414;BME280;60055;41.884;12.534;2023-07-30T08:51:23;100832.50;;;33.11;36.87
33414;BME280;60055;41.884;12.534;2023-07-30T08:53:51;100839.06;;;33.45;35.22
33414;BME280;60055;41.884;12.534;2023-07-30T08:56:17;100828.50;;;33.42;34.84
33414;BME280;60055;41.884;12.534;2023-07-30T08:58:44;100840.59;;;33.88;34.50
33414;BME280;60055;41.884;12.534;2023-07-30T09:01:11;100833.31;;;33.67;32.97
33414;BME280;60055;41.884;12.534;2023-07-30T09:03:38;100824.59;;;33.92;33.63
33414;BME280;60055;41.884;12.534;2023-07-30T09:06:04;100835.91;;;34.16;33.52
33414;BME280;60055;41.884;12.534;2023-07-30T09:08:30;100831.75;;;34.47;32.78
33414;BME280;60055;41.884;12.534;2023-07-30T09:10:57;100825.84;;;34.50;33.54
33414;BME280;60055;41.884;12.534;2023-07-30T09:13:23;100824.16;;;34.55;32.85
33414;BME280;60055;41.884;12.534;2023-07-30T09:15:51;100827.38;;;34.65;32.58
33414;BME280;60055;41.884;12.534;2023-07-30T09:18:17;100823.16;;;34.63;31.60
33414;BME280;60055;41.884;12.534;2023-07-30T09:20:46;100822.50;;;34.61;30.47
33414;BME280;60055;41.884;12.534;2023-07-30T09:23:12;100822.69;;;34.46;31.10
33414;BME280;60055;41.884;12.534;2023-07-30T09:25:38;100811.72;;;34.53;29.36
33414;BME280;60055;41.884;12.534;2023-07-30T09:28:05;100807.06;;;33.86;29.69
33414;BME280;60055;41.884;12.534;2023-07-30T09:30:31;100814.47;;;33.02;31.83
33414;BME280;60055;41.884;12.534;2023-07-30T09:32:58;100811.09;;;33.21;31.64
33414;BME280;60055;41.884;12.534;2023-07-30T09:35:25;100800.41;;;33.33;31.45
33414;BME280;60055;41.884;12.534;2023-07-30T09:37:58;100803.25;;;33.87;30.85
33414;BME280;60055;41.884;12.534;2023-07-30T09:40:35;100810.56;;;34.14;29.31
33414;BME280;60055;41.884;12.534;2023-07-30T09:43:05;100807.22;;;34.25;29.47
33414;BME280;60055;41.884;12.534;2023-07-30T09:45:34;100806.59;;;34.23;29.47
33414;BME280;60055;41.884;12.534;2023-07-30T09:48:02;100802.50;;;34.06;29.81
33414;BME280;60055;41.884;12.534;2023-07-30T09:50:28;100803.28;;;33.94;30.12
33414;BME280;60055;41.884;12.534;2023-07-30T09:52:54;100814.88;;;33.55;30.89
33414;BME280;60055;41.884;12.534;2023-07-30T09:55:19;100807.84;;;33.73;30.81
33414;BME280;60055;41.884;12.534;2023-07-30T09:57:45;100807.81;;;33.67;31.09
33414;BME280;60055;41.884;12.534;2023-07-30T10:00:11;100811.22;;;33.69;30.72
33414;BME280;60055;41.884;12.534;2023-07-30T10:02:41;100814.53;;;33.64;31.56
33414;BME280;60055;41.884;12.534;2023-07-30T10:05:17;100811.75;;;33.99;31.42
33414;BME280;60055;41.884;12.534;2023-07-30T10:07:51;100815.78;;;34.03;30.62
33414;BME280;60055;41.884;12.534;2023-07-30T10:10:19;100806.72;;;34.02;30.78
33414;BME280;60055;41.884;12.534;2023-07-30T10:12:46;100819.03;;;34.19;31.07
33414;BME280;60055;41.884;12.534;2023-07-30T10:15:11;100818.22;;;34.32;31.37
33414;BME280;60055;41.884;12.534;2023-07-30T10:17:37;100806.41;;;34.45;30.63
33414;BME280;60055;41.884;12.534;2023-07-30T10:20:25;100814.72;;;34.04;32.00
33414;BME280;60055;41.884;12.534;2023-07-30T10:22:57;100814.72;;;34.04;32.52
33414;BME280;60055;41.884;12.534;2023-07-30T10:25:43;100808.50;;;34.29;32.20
33414;BME280;60055;41.884;12.534;2023-07-30T10:28:26;100811.03;;;33.83;32.44
33414;BME280;60055;41.884;12.534;2023-07-30T10:30:56;100817.97;;;33.73;32.41
33414;BME280;60055;41.884;12.534;2023-07-30T10:33:22;100811.00;;;33.77;33.00
33414;BME280;60055;41.884;12.534;2023-07-30T10:35:47;100809.50;;;33.68;33.37
33414;BME280;60055;41.884;12.534;2023-07-30T10:41:14;100804.56;;;33.91;33.32
33414;BME280;60055;41.884;12.534;2023-07-30T10:43:45;100800.19;;;34.03;33.23
33414;BME280;60055;41.884;12.534;2023-07-30T10:46:13;100805.44;;;34.05;33.93
33414;BME280;60055;41.884;12.534;2023-07-30T10:48:41;100801.91;;;33.70;35.08
33414;BME280;60055;41.884;12.534;2023-07-30T10:51:09;100802.00;;;33.83;35.43
33414;BME280;60055;41.884;12.534;2023-07-30T10:53:35;100800.31;;;33.82;35.26
33414;BME280;60055;41.884;12.534;2023-07-30T10:56:03;100800.75;;;33.85;34.98
33414;BME280;60055;41.884;12.534;2023-07-30T10:58:33;100796.91;;;33.80;34.69
33414;BME280;60055;41.884;12.534;2023-07-30T11:01:01;100799.94;;;33.98;34.25
33414;BME280;60055;41.884;12.534;2023-07-30T11:03:27;100801.22;;;34.02;34.58
33414;BME280;60055;41.884;12.534;2023-07-30T11:05:53;100800.03;;;33.70;36.65
33414;BME280;60055;41.884;12.534;2023-07-30T11:08:21;100794.47;;;33.57;38.17
33414;BME280;60055;41.884;12.534;2023-07-30T11:10:47;100788.72;;;33.46;38.36
33414;BME280;60055;41.884;12.534;2023-07-30T11:13:15;100788.50;;;33.47;39.55
33414;BME280;60055;41.884;12.534;2023-07-30T11:15:44;100777.47;;;33.62;38.83
33414;BME280;60055;41.884;12.534;2023-07-30T11:18:12;100781.72;;;33.71;38.90
33414;BME280;60055;41.884;12.534;2023-07-30T11:20:37;100784.28;;;33.45;39.08
33414;BME280;60055;41.884;12.534;2023-07-30T11:23:20;100787.38;;;33.63;39.05
33414;BME280;60055;41.884;12.534;2023-07-30T11:25:49;100788.34;;;33.55;39.32
33414;BME280;60055;41.884;12.534;2023-07-30T11:28:30;100795.13;;;33.59;40.16
33414;BME280;60055;41.884;12.534;2023-07-30T11:33:31;100786.69;;;33.61;39.80
33414;BME280;60055;41.884;12.534;2023-07-30T11:35:57;100787.44;;;33.42;39.94
33414;BME280;60055;41.884;12.534;2023-07-30T11:38:26;100782.31;;;33.32;40.08
33414;BME280;60055;41.884;12.534;2023-07-30T11:40:53;100786.00;;;33.46;40.02
33414;BME280;60055;41.884;12.534;2023-07-30T11:43:20;100778.25;;;33.56;39.29
33414;BME280;60055;41.884;12.534;2023-07-30T11:45:46;100775.69;;;33.54;39.35
33414;BME280;60055;41.884;12.534;2023-07-30T11:48:12;100775.19;;;33.72;38.93
33414;BME280;60055;41.884;12.534;2023-07-30T11:53:09;100776.69;;;33.12;39.72
33414;BME280;60055;41.884;12.534;2023-07-30T11:55:38;100770.34;;;33.05;40.31
33414;BME280;60055;41.884;12.534;2023-07-30T11:58:05;100769.56;;;32.90;40.63
33414;BME280;60055;41.884;12.534;2023-07-30T12:00:31;100772.22;;;33.32;39.96
33414;BME280;60055;41.884;12.534;2023-07-30T12:03:02;100773.28;;;33.72;39.23
33414;BME280;60055;41.884;12.534;2023-07-30T12:05:35;100780.66;;;33.72;39.13
33414;BME280;60055;41.884;12.534;2023-07-30T12:08:02;100774.88;;;33.60;39.57
33414;BME280;60055;41.884;12.534;2023-07-30T12:10:41;100772.88;;;33.69;39.94
33414;BME280;60055;41.884;12.534;2023-07-30T12:13:12;100765.31;;;33.84;39.65
33414;BME280;60055;41.884;12.534;2023-07-30T12:15:38;100763.69;;;33.96;39.50
33414;BME280;60055;41.884;12.534;2023-07-30T12:18:03;100761.69;;;33.70;40.14
33414;BME280;60055;41.884;12.534;2023-07-30T12:20:28;100755.19;;;33.37;40.99
33414;BME280;60055;41.884;12.534;2023-07-30T12:22:54;100755.03;;;33.45;40.97
33414;BME280;60055;41.884;12.534;2023-07-30T12:25:19;100747.78;;;33.72;40.37
33414;BME280;60055;41.884;12.534;2023-07-30T12:27:45;100743.81;;;33.81;40.48
33414;BME280;60055;41.884;12.534;2023-07-30T12:30:10;100745.25;;;33.70;41.36
33414;BME280;60055;41.884;12.534;2023-07-30T12:32:36;100742.91;;;33.67;41.71
33414;BME280;60055;41.884;12.534;2023-07-30T12:35:01;100729.69;;;33.77;41.28
33414;BME280;60055;41.884;12.534;2023-07-30T12:37:27;100724.19;;;33.77;41.20
33414;BME280;60055;41.884;12.534;2023-07-30T12:39:52;100722.59;;;33.96;40.02
33414;BME280;60055;41.884;12.534;2023-07-30T12:42:18;100723.66;;;34.08;39.53
33414;BME280;60055;41.884;12.534;2023-07-30T12:44:43;100726.88;;;34.18;40.01